sensor_id;sensor_type;location;lat;lon;timestamp;pressure;altitude;pressure_sealevel;temperature
75822;BMP180;64454;51.984;9.838;2022-12-18T00:02:23;101584.00;;;-6.70
75822;BMP180;64454;51.984;9.838;2022-12-18T00:04:50;101580.00;;;-6.60
75822;BMP180;64454;51.984;9.838;2022-12-18T00:07:16;101577.00;;;-6.70
75822;BMP180;64454;51.984;9.838;2022-12-18T00:09:43;101574.00;;;-6.50
75822;BMP180;64454;51.984;9.838;2022-12-18T00:12:12;101578.00;;;-6.50
75822;BMP180;64454;51.984;9.838;2022-12-18T00:14:38;101572.00;;;-6.80
75822;BMP180;64454;51.984;9.838;2022-12-18T00:17:05;101578.00;;;-6.80
75822;BMP180;64454;51.984;9.838;2022-12-18T00:19:32;101562.00;;;-6.90
75822;BMP180;64454;51.984;9.838;2022-12-18T00:21:59;101566.00;;;-7.10
75822;BMP180;64454;51.984;9.838;2022-12-18T00:24:26;101581.00;;;-6.90
75822;BMP180;64454;51.984;9.838;2022-12-18T00:26:53;101581.00;;;-6.60
75822;BMP180;64454;51.984;9.838;2022-12-18T00:29:21;101591.00;;;-6.60
75822;BMP180;64454;51.984;9.838;2022-12-18T00:31:48;101576.00;;;-6.60
75822;BMP180;64454;51.984;9.838;2022-12-18T00:34:15;101579.00;;;-6.70
75822;BMP180;64454;51.984;9.838;2022-12-18T00:36:42;101584.00;;;-7.00
75822;BMP180;64454;51.984;9.838;2022-12-18T00:39:10;101594.00;;;-7.00
75822;BMP180;64454;51.984;9.838;2022-12-18T00:41:38;101586.00;;;-7.10
75822;BMP180;64454;51.984;9.838;2022-12-18T00:44:23;101593.00;;;-6.80
75822;BMP180;64454;51.984;9.838;2022-12-18T00:46:50;101612.00;;;-6.80
75822;BMP180;64454;51.984;9.838;2022-12-18T00:49:19;101607.00;;;-6.60
75822;BMP180;64454;51.984;9.838;2022-12-18T00:51:47;101614.00;;;-6.60
75822;BMP180;64454;51.984;9.838;2022-12-18T00:54:14;101600.00;;;-6.60
75822;BMP180;64454;51.984;9.838;2022-12-18T00:56:41;101595.00;;;-6.80
75822;BMP180;64454;51.984;9.838;2022-12-18T00:59:08;101602.00;;;-6.80
75822;BMP180;64454;51.984;9.838;2022-12-18T01:01:37;101598.00;;;-6.70
75822;BMP180;64454;51.984;9.838;2022-12-18T01:04:05;101590.00;;;-6.60
75822;BMP180;64454;51.984;9.838;2022-12-18T01:06:32;101587.00;;;-7.10
75822;BMP180;64454;51.984;9.838;2022-12-18T01:08:59;101586.00;;;-6.90
75822;BMP180;64454;51.984;9.838;2022-12-18T01:11:26;101596.00;;;-7.10
75822;BMP180;64454;51.984;9.838;2022-12-18T01:13:53;101596.00;;;-7.10
75822;BMP180;64454;51.984;9.838;2022-12-18T01:16:21;101597.00;;;-7.10
75822;BMP180;64454;51.984;9.838;2022-12-18T01:18:52;101598.00;;;-7.10
75822;BMP180;64454;51.984;9.838;2022-12-18T01:21:22;101599.00;;;-7.10
75822;BMP180;64454;51.984;9.838;2022-12-18T01:23:53;101608.00;;;-6.60
75822;BMP180;64454;51.984;9.838;2022-12-18T01:26:20;101609.00;;;-6.80
75822;BMP180;64454;51.984;9.838;2022-12-18T01:28:47;101623.00;;;-6.80
75822;BMP180;64454;51.984;9.838;2022-12-18T01:31:20;101619.00;;;-6.90
75822;BMP180;64454;51.984;9.838;2022-12-18T01:33:49;101615.00;;;-7.20
75822;BMP180;64454;51.984;9.838;2022-12-18T01:36:19;101624.00;;;-7.20
75822;BMP180;64454;51.984;9.838;2022-12-18T01:38:47;101623.00;;;-7.50
75822;BMP180;64454;51.984;9.838;2022-12-18T01:41:18;101622.00;;;-7.30
75822;BMP180;64454;51.984;9.838;2022-12-18T01:43:50;101627.00;;;-7.00
75822;BMP180;64454;51.984;9.838;2022-12-18T01:46:20;101635.00;;;-7.30
75822;BMP180;64454;51.984;9.838;2022-12-18T01:48:51;101636.00;;;-7.30
75822;BMP180;64454;51.984;9.838;2022-12-18T01:51:19;101632.00;;;-7.20
75822;BMP180;64454;51.984;9.838;2022-12-18T01:53:48;101633.00;;;-7.60
75822;BMP180;64454;51.984;9.838;2022-12-18T01:56:18;101627.00;;;-7.20
75822;BMP180;64454;51.984;9.838;2022-12-18T01:58:54;101629.00;;;-7.20
75822;BMP180;64454;51.984;9.838;2022-12-18T02:01:23;101626.00;;;-7.00
75822;BMP180;64454;51.984;9.838;2022-12-18T02:03:52;101628.00;;;-7.40
75822;BMP180;64454;51.984;9.838;2022-12-18T02:06:27;101629.00;;;-7.40
75822;BMP180;64454;51.984;9.838;2022-12-18T02:09:07;101626.00;;;-7.40
75822;BMP180;64454;51.984;9.838;2022-12-18T02:11:49;101636.00;;;-7.50
75822;BMP180;64454;51.984;9.838;2022-12-18T02:14:28;101622.00;;;-7.40
75822;BMP180;64454;51.984;9.838;2022-12-18T02:17:03;101617.00;;;-7.50
75822;BMP180;64454;51.984;9.838;2022-12-18T02:20:03;101621.00;;;-7.20
75822;BMP180;64454;51.984;9.838;2022-12-18T02:22:45;101609.00;;;-7.40
75822;BMP180;64454;51.984;9.838;2022-12-18T02:28:21;101622.00;;;-7.40
75822;BMP180;64454;51.984;9.838;2022-12-18T02:30:52;101636.00;;;-7.10
75822;BMP180;64454;51.984;9.838;2022-12-18T02:33:25;101630.00;;;-7.40
75822;BMP180;64454;51.984;9.838;2022-12-18T02:35:55;101633.00;;;-7.60
75822;BMP180;64454;51.984;9.838;2022-12-18T02:38:25;101622.00;;;-7.40
75822;BMP180;64454;51.984;9.838;2022-12-18T02:40:53;101628.00;;;-7.30
75822;BMP180;64454;51.984;9.838;2022-12-18T02:43:22;101627.00;;;-7.20
75822;BMP180;64454;51.984;9.838;2022-12-18T02:45:52;101629.00;;;-7.20
75822;BMP180;64454;51.984;9.838;2022-12-18T02:48:26;101618.00;;;-7.50
75822;BMP180;64454;51.984;9.838;2022-12-18T02:51:02;101618.00;;;-7.40
75822;BMP180;64454;51.984;9.838;2022-12-18T02:53:39;101613.00;;;-7.50
75822;BMP180;64454;51.984;9.838;2022-12-18T02:56:17;101603.00;;;-7.50
75822;BMP180;64454;51.984;9.838;2022-12-18T02:58:58;101621.00;;;-7.60
75822;BMP180;64454;51.984;9.838;2022-12-18T03:01:36;101609.00;;;-7.30
75822;BMP180;64454;51.984;9.838;2022-12-18T03:04:12;101602.00;;;-6.90
75822;BMP180;64454;51.984;9.838;2022-12-18T03:06:47;101603.00;;;-7.10
75822;BMP180;64454;51.984;9.838;2022-12-18T03:09:19;101605.00;;;-7.00
75822;BMP180;64454;51.984;9.838;2022-12-18T03:11:56;101607.00;;;-7.10
75822;BMP180;64454;51.984;9.838;2022-12-18T03:14:45;101603.00;;;-7.10
75822;BMP180;64454;51.984;9.838;2022-12-18T03:17:22;101602.00;;;-7.30
75822;BMP180;64454;51.984;9.838;2022-12-18T03:19:51;101590.00;;;-7.20
75822;BMP180;64454;51.984;9.838;2022-12-18T03:22:23;101597.00;;;-6.60
75822;BMP180;64454;51.984;9.838;2022-12-18T03:24:53;101593.00;;;-6.60
75822;BMP180;64454;51.984;9.838;2022-12-18T03:27:23;101599.00;;;-6.40
75822;BMP180;64454;51.984;9.838;2022-12-18T03:30:01;101613.00;;;-6.10
75822;BMP180;64454;51.984;9.838;2022-12-18T03:32:39;101599.00;;;-5.80
75822;BMP180;64454;51.984;9.838;2022-12-18T03:35:10;101592.00;;;-6.00
75822;BMP180;64454;51.984;9.838;2022-12-18T03:37:38;101592.00;;;-6.40
75822;BMP180;64454;51.984;9.838;2022-12-18T03:40:06;101595.00;;;-6.50
75822;BMP180;64454;51.984;9.838;2022-12-18T03:42:45;101595.00;;;-6.40
75822;BMP180;64454;51.984;9.838;2022-12-18T03:45:23;101612.00;;;-6.50
75822;BMP180;64454;51.984;9.838;2022-12-18T03:48:07;101597.00;;;-6.10
75822;BMP180;64454;51.984;9.838;2022-12-18T03:50:46;101592.00;;;-6.10
75822;BMP180;64454;51.984;9.838;2022-12-18T03:53:25;101587.00;;;-6.50
75822;BMP180;64454;51.984;9.838;2022-12-18T03:55:56;101585.00;;;-6.70
75822;BMP180;64454;51.984;9.838;2022-12-18T03:58:26;101573.00;;;-6.70
75822;BMP180;64454;51.984;9.838;2022-12-18T04:01:00;101578.00;;;-6.20
75822;BMP180;64454;51.984;9.838;2022-12-18T04:03:30;101582.00;;;-6.50
75822;BMP180;64454;51.984;9.838;2022-12-18T04:06:00;101586.00;;;-6.20
75822;BMP180;64454;51.984;9.838;2022-12-18T04:08:28;101593.00;;;-6.30
75822;BMP180;64454;51.984;9.838;2022-12-18T04:10:55;101588.00;;;-6.20
75822;BMP180;64454;51.984;9.838;2022-12-18T04:13:24;101590.00;;;-6.60
75822;BMP180;64454;51.984;9.838;2022-12-18T04:15:51;101599.00;;;-6.80
75822;BMP180;64454;51.984;9.838;2022-12-18T04:18:19;101590.00;;;-6.80
75822;BMP180;64454;51.984;9.838;2022-12-18T04:20:46;101600.00;;;-6.60
75822;BMP180;64454;51.984;9.838;2022-12-18T04:23:13;101591.00;;;-6.40
75822;BMP180;64454;51.984;9.838;2022-12-18T04:25:40;101603.00;;;-6.50
75822;BMP180;64454;51.984;9.838;2022-12-18T04:28:07;101600.00;;;-6.30
75822;BMP180;64454;51.984;9.838;2022-12-18T04:30:34;101601.00;;;-6.10
75822;BMP180;64454;51.984;9.838;2022-12-18T04:33:01;101596.00;;;-6.20
75822;BMP180;64454;51.984;9.838;2022-12-18T04:35:29;101595.00;;;-6.00
75822;BMP180;64454;51.984;9.838;2022-12-18T04:37:56;101597.00;;;-6.20
75822;BMP180;64454;51.984;9.838;2022-12-18T04:40:23;101595.00;;;-6.10
75822;BMP180;64454;51.984;9.838;2022-12-18T04:42:50;101599.00;;;-6.10
75822;BMP180;64454;51.984;9.838;2022-12-18T04:45:17;101597.00;;;-6.00
75822;BMP180;64454;51.984;9.838;2022-12-18T04:47:44;101591.00;;;-6.10
75822;BMP180;64454;51.984;9.838;2022-12-18T04:50:11;101580.00;;;-6.20
75822;BMP180;64454;51.984;9.838;2022-12-18T04:52:40;101595.00;;;-6.20
75822;BMP180;64454;51.984;9.838;2022-12-18T04:55:07;101594.00;;;-6.20
75822;BMP180;64454;51.984;9.838;2022-12-18T04:57:34;101604.00;;;-6.10
75822;BMP180;64454;51.984;9.838;2022-12-18T05:00:01;101605.00;;;-6.00
75822;BMP180;64454;51.984;9.838;2022-12-18T05:02:28;101600.00;;;-6.10
75822;BMP180;64454;51.984;9.838;2022-12-18T05:04:55;101609.00;;;-6.00
75822;BMP180;64454;51.984;9.838;2022-12-18T05:07:22;101607.00;;;-6.10
75822;BMP180;64454;51.984;9.838;2022-12-18T05:09:50;101613.00;;;-6.30
75822;BMP180;64454;51.984;9.838;2022-12-18T05:12:17;101607.00;;;-6.30
75822;BMP180;64454;51.984;9.838;2022-12-18T05:14:44;101603.00;;;-6.50
75822;BMP180;64454;51.984;9.838;2022-12-18T05:17:11;101595.00;;;-6.50
75822;BMP180;64454;51.984;9.838;2022-12-18T05:19:38;101598.00;;;-6.20
75822;BMP180;64454;51.984;9.838;2022-12-18T05:22:05;101608.00;;;-6.40
75822;BMP180;64454;51.984;9.838;2022-12-18T05:24:32;101615.00;;;-6.30
75822;BMP180;64454;51.984;9.838;2022-12-18T05:27:00;101617.00;;;-6.50
75822;BMP180;64454;51.984;9.838;2022-12-18T05:29:27;101614.00;;;-6.40
75822;BMP180;64454;51.984;9.838;2022-12-18T05:31:54;101623.00;;;-6.60
75822;BMP180;64454;51.984;9.838;2022-12-18T05:34:21;101633.00;;;-6.50
75822;BMP180;64454;51.984;9.838;2022-12-18T05:36:48;101621.00;;;-6.40
75822;BMP180;64454;51.984;9.838;2022-12-18T05:39:15;101627.00;;;-6.50
75822;BMP180;64454;51.984;9.838;2022-12-18T05:41:42;101615.00;;;-6.60
75822;BMP180;64454;51.984;9.838;2022-12-18T05:44:11;101621.00;;;-6.60
75822;BMP180;64454;51.984;9.838;2022-12-18T05:46:40;101642.00;;;-6.60
75822;BMP180;64454;51.984;9.838;2022-12-18T05:49:08;101651.00;;;-6.60
75822;BMP180;64454;51.984;9.838;2022-12-18T05:51:36;101648.00;;;-6.60
75822;BMP180;64454;51.984;9.838;2022-12-18T05:54:04;101638.00;;;-7.10
75822;BMP180;64454;51.984;9.838;2022-12-18T05:56:31;101633.00;;;-6.80
75822;BMP180;64454;51.984;9.838;2022-12-18T05:58:58;101646.00;;;-6.90
75822;BMP180;64454;51.984;9.838;2022-12-18T06:01:26;101648.00;;;-7.00
75822;BMP180;64454;51.984;9.838;2022-12-18T06:03:54;101656.00;;;-7.20
75822;BMP180;64454;51.984;9.838;2022-12-18T06:06:24;101643.00;;;-7.10
75822;BMP180;64454;51.984;9.838;2022-12-18T06:08:52;101650.00;;;-7.30
75822;BMP180;64454;51.984;9.838;2022-12-18T06:11:21;101656.00;;;-7.40
75822;BMP180;64454;51.984;9.838;2022-12-18T06:13:50;101654.00;;;-7.20
75822;BMP180;64454;51.984;9.838;2022-12-18T06:16:18;101652.00;;;-7.20
75822;BMP180;64454;51.984;9.838;2022-12-18T06:18:46;101662.00;;;-7.40
75822;BMP180;64454;51.984;9.838;2022-12-18T06:21:13;101664.00;;;-7.50
75822;BMP180;64454;51.984;9.838;2022-12-18T06:23:40;101656.00;;;-7.50
75822;BMP180;64454;51.984;9.838;2022-12-18T06:26:10;101660.00;;;-7.30
75822;BMP180;64454;51.984;9.838;2022-12-18T06:28:38;101660.00;;;-7.70
75822;BMP180;64454;51.984;9.838;2022-12-18T06:31:06;101657.00;;;-7.50
75822;BMP180;64454;51.984;9.838;2022-12-18T06:33:34;101643.00;;;-7.50
75822;BMP180;64454;51.984;9.838;2022-12-18T06:36:05;101648.00;;;-7.60
75822;BMP180;64454;51.984;9.838;2022-12-18T06:38:35;101649.00;;;-7.70
75822;BMP180;64454;51.984;9.838;2022-12-18T06:41:06;101654.00;;;-7.50
75822;BMP180;64454;51.984;9.838;2022-12-18T06:43:33;101655.00;;;-7.30
75822;BMP180;64454;51.984;9.838;2022-12-18T06:46:01;101655.00;;;-7.70
75822;BMP180;64454;51.984;9.838;2022-12-18T06:48:30;101654.00;;;-7.40
75822;BMP180;64454;51.984;9.838;2022-12-18T06:50:58;101660.00;;;-7.70
75822;BMP180;64454;51.984;9.838;2022-12-18T06:53:26;101663.00;;;-7.40
75822;BMP180;64454;51.984;9.838;2022-12-18T06:55:59;101673.00;;;-7.90
75822;BMP180;64454;51.984;9.838;2022-12-18T06:58:27;101655.00;;;-7.70
75822;BMP180;64454;51.984;9.838;2022-12-18T07:00:59;101663.00;;;-8.00
75822;BMP180;64454;51.984;9.838;2022-12-18T07:03:26;101665.00;;;-7.60
75822;BMP180;64454;51.984;9.838;2022-12-18T07:05:53;101672.00;;;-7.60
75822;BMP180;64454;51.984;9.838;2022-12-18T07:08:20;101672.00;;;-7.50
75822;BMP180;64454;51.984;9.838;2022-12-18T07:10:48;101682.00;;;-7.60
75822;BMP180;64454;51.984;9.838;2022-12-18T07:13:15;101682.00;;;-7.20
75822;BMP180;64454;51.984;9.838;2022-12-18T07:15:43;101682.00;;;-7.10
75822;BMP180;64454;51.984;9.838;2022-12-18T07:18:10;101680.00;;;-6.90
75822;BMP180;64454;51.984;9.838;2022-12-18T07:20:37;101686.00;;;-6.90
75822;BMP180;64454;51.984;9.838;2022-12-18T07:23:04;101693.00;;;-7.00
75822;BMP180;64454;51.984;9.838;2022-12-18T07:25:33;101701.00;;;-7.10
75822;BMP180;64454;51.984;9.838;2022-12-18T07:28:03;101701.00;;;-7.40
75822;BMP180;64454;51.984;9.838;2022-12-18T07:30:30;101698.00;;;-7.10
75822;BMP180;64454;51.984;9.838;2022-12-18T07:32:57;101710.00;;;-7.20
75822;BMP180;64454;51.984;9.838;2022-12-18T07:35:24;101707.00;;;-7.20
75822;BMP180;64454;51.984;9.838;2022-12-18T07:37:51;101719.00;;;-7.10
75822;BMP180;64454;51.984;9.838;2022-12-18T07:40:17;101717.00;;;-6.90
75822;BMP180;64454;51.984;9.838;2022-12-18T07:42:44;101717.00;;;-7.10
75822;BMP180;64454;51.984;9.838;2022-12-18T07:45:13;101711.00;;;-7.20
75822;BMP180;64454;51.984;9.838;2022-12-18T07:47:40;101719.00;;;-7.20
75822;BMP180;64454;51.984;9.838;2022-12-18T07:50:08;101716.00;;;-7.10
75822;BMP180;64454;51.984;9.838;2022-12-18T07:52:35;101717.00;;;-7.00
75822;BMP180;64454;51.984;9.838;2022-12-18T07:55:02;101713.00;;;-7.10
75822;BMP180;64454;51.984;9.838;2022-12-18T07:57:29;101705.00;;;-7.30
75822;BMP180;64454;51.984;9.838;2022-12-18T07:59:56;101700.00;;;-7.20
75822;BMP180;64454;51.984;9.838;2022-12-18T08:02:24;101711.00;;;-7.20
75822;BMP180;64454;51.984;9.838;2022-12-18T08:04:51;101704.00;;;-6.40
75822;BMP180;64454;51.984;9.838;2022-12-18T08:07:18;101686.00;;;-5.90
75822;BMP180;64454;51.984;9.838;2022-12-18T08:09:45;101689.00;;;-6.50
75822;BMP180;64454;51.984;9.838;2022-12-18T08:12:12;101690.00;;;-6.40
75822;BMP180;64454;51.984;9.838;2022-12-18T08:14:39;101683.00;;;-6.60
75822;BMP180;64454;51.984;9.838;2022-12-18T08:17:06;101682.00;;;-6.80
75822;BMP180;64454;51.984;9.838;2022-12-18T08:19:34;101682.00;;;-6.70
75822;BMP180;64454;51.984;9.838;2022-12-18T08:22:01;101685.00;;;-6.10
75822;BMP180;64454;51.984;9.838;2022-12-18T08:24:28;101662.00;;;-5.20
75822;BMP180;64454;51.984;9.838;2022-12-18T08:26:55;101645.00;;;-3.60
75822;BMP180;64454;51.984;9.838;2022-12-18T08:29:22;101616.00;;;-2.10
75822;BMP180;64454;51.984;9.838;2022-12-18T08:31:49;101604.00;;;-0.50
75822;BMP180;64454;51.984;9.838;2022-12-18T08:34:16;101605.00;;;1.30
75822;BMP180;64454;51.984;9.838;2022-12-18T08:36:44;101597.00;;;1.60
75822;BMP180;64454;51.984;9.838;2022-12-18T08:39:11;101600.00;;;2.00
75822;BMP180;64454;51.984;9.838;2022-12-18T08:41:38;101597.00;;;2.40
75822;BMP180;64454;51.984;9.838;2022-12-18T08:44:07;101594.00;;;2.00
75822;BMP180;64454;51.984;9.838;2022-12-18T08:46:51;101574.00;;;3.00
75822;BMP180;64454;51.984;9.838;2022-12-18T08:49:18;101585.00;;;3.90
75822;BMP180;64454;51.984;9.838;2022-12-18T08:51:47;101578.00;;;3.10
75822;BMP180;64454;51.984;9.838;2022-12-18T08:54:13;101586.00;;;3.40
75822;BMP180;64454;51.984;9.838;2022-12-18T08:56:40;101587.00;;;2.10
75822;BMP180;64454;51.984;9.838;2022-12-18T08:59:09;101587.00;;;1.30
75822;BMP180;64454;51.984;9.838;2022-12-18T09:01:35;101584.00;;;2.70
75822;BMP180;64454;51.984;9.838;2022-12-18T09:04:03;101585.00;;;2.30
75822;BMP180;64454;51.984;9.838;2022-12-18T09:06:30;101577.00;;;2.20
75822;BMP180;64454;51.984;9.838;2022-12-18T09:08:58;101579.00;;;2.00
75822;BMP180;64454;51.984;9.838;2022-12-18T09:11:27;101575.00;;;2.60
75822;BMP180;64454;51.984;9.838;2022-12-18T09:13:55;101586.00;;;1.60
75822;BMP180;64454;51.984;9.838;2022-12-18T09:16:24;101595.00;;;1.60
75822;BMP180;64454;51.984;9.838;2022-12-18T09:18:51;101592.00;;;1.30
75822;BMP180;64454;51.984;9.838;2022-12-18T09:21:26;101584.00;;;2.40
75822;BMP180;64454;51.984;9.838;2022-12-18T09:23:55;101584.00;;;4.10
75822;BMP180;64454;51.984;9.838;2022-12-18T09:26:25;101591.00;;;3.70
75822;BMP180;64454;51.984;9.838;2022-12-18T09:28:52;101583.00;;;4.20
75822;BMP180;64454;51.984;9.838;2022-12-18T09:31:21;101584.00;;;5.30
75822;BMP180;64454;51.984;9.838;2022-12-18T09:33:49;101571.00;;;4.60
75822;BMP180;64454;51.984;9.838;2022-12-18T09:36:17;101574.00;;;3.60
75822;BMP180;64454;51.984;9.838;2022-12-18T09:38:45;101565.00;;;3.60
75822;BMP180;64454;51.984;9.838;2022-12-18T09:41:33;101552.00;;;2.50
75822;BMP180;64454;51.984;9.838;2022-12-18T09:44:13;101573.00;;;3.70
75822;BMP180;64454;51.984;9.838;2022-12-18T09:46:47;101558.00;;;3.00
75822;BMP180;64454;51.984;9.838;2022-12-18T09:49:18;101578.00;;;3.10
75822;BMP180;64454;51.984;9.838;2022-12-18T09:51:52;101574.00;;;2.80
75822;BMP180;64454;51.984;9.838;2022-12-18T09:54:25;101580.00;;;3.70
75822;BMP180;64454;51.984;9.838;2022-12-18T09:56:54;101607.00;;;3.40
75822;BMP180;64454;51.984;9.838;2022-12-18T09:59:26;101604.00;;;2.10
75822;BMP180;64454;51.984;9.838;2022-12-18T10:01:56;101602.00;;;0.50
75822;BMP180;64454;51.984;9.838;2022-12-18T10:04:24;101601.00;;;0.20
75822;BMP180;64454;51.984;9.838;2022-12-18T10:07:01;101606.00;;;0.20
75822;BMP180;64454;51.984;9.838;2022-12-18T10:09:37;101604.00;;;-0.30
75822;BMP180;64454;51.984;9.838;2022-12-18T10:12:13;101592.00;;;-0.20
75822;BMP180;64454;51.984;9.838;2022-12-18T10:14:51;101593.00;;;0.10
75822;BMP180;64454;51.984;9.838;2022-12-18T10:17:30;101584.00;;;0.20
75822;BMP180;64454;51.984;9.838;2022-12-18T10:20:10;101575.00;;;1.70
75822;BMP180;64454;51.984;9.838;2022-12-18T10:22:53;101579.00;;;1.50
75822;BMP180;64454;51.984;9.838;2022-12-18T10:25:26;101571.00;;;1.40
75822;BMP180;64454;51.984;9.838;2022-12-18T10:28:07;101574.00;;;1.10
75822;BMP180;64454;51.984;9.838;2022-12-18T10:30:35;101562.00;;;1.20
75822;BMP180;64454;51.984;9.838;2022-12-18T10:33:02;101551.00;;;2.30
75822;BMP180;64454;51.984;9.838;2022-12-18T10:35:29;101548.00;;;3.40
75822;BMP180;64454;51.984;9.838;2022-12-18T10:38:06;101532.00;;;5.00
75822;BMP180;64454;51.984;9.838;2022-12-18T10:40:49;101547.00;;;4.70
75822;BMP180;64454;51.984;9.838;2022-12-18T10:43:24;101544.00;;;5.70
75822;BMP180;64454;51.984;9.838;2022-12-18T10:46:14;101556.00;;;4.50
75822;BMP180;64454;51.984;9.838;2022-12-18T10:48:53;101556.00;;;5.30
75822;BMP180;64454;51.984;9.838;2022-12-18T10:51:23;101556.00;;;6.10
75822;BMP180;64454;51.984;9.838;2022-12-18T10:53:57;101556.00;;;5.00
75822;BMP180;64454;51.984;9.838;2022-12-18T10:56:28;101549.00;;;4.10
75822;BMP180;64454;51.984;9.838;2022-12-18T10:59:01;101535.00;;;5.20
75822;BMP180;64454;51.984;9.838;2022-12-18T11:01:46;101536.00;;;5.30
75822;BMP180;64454;51.984;9.838;2022-12-18T11:04:19;101538.00;;;4.20
75822;BMP180;64454;51.984;9.838;2022-12-18T11:06:57;101541.00;;;3.20
75822;BMP180;64454;51.984;9.838;2022-12-18T11:09:27;101538.00;;;3.10
75822;BMP180;64454;51.984;9.838;2022-12-18T11:11:57;101537.00;;;2.90
75822;BMP180;64454;51.984;9.838;2022-12-18T11:14:29;101540.00;;;1.60
75822;BMP180;64454;51.984;9.838;2022-12-18T11:17:00;101543.00;;;1.00
75822;BMP180;64454;51.984;9.838;2022-12-18T11:19:33;101540.00;;;1.00
75822;BMP180;64454;51.984;9.838;2022-12-18T11:22:03;101541.00;;;1.30
75822;BMP180;64454;51.984;9.838;2022-12-18T11:24:52;101529.00;;;1.10
75822;BMP180;64454;51.984;9.838;2022-12-18T11:27:20;101536.00;;;1.20
75822;BMP180;64454;51.984;9.838;2022-12-18T11:29:50;101534.00;;;0.90
75822;BMP180;64454;51.984;9.838;2022-12-18T11:32:34;101527.00;;;0.80
75822;BMP180;64454;51.984;9.838;2022-12-18T11:35:14;101532.00;;;1.20
75822;BMP180;64454;51.984;9.838;2022-12-18T11:37:49;101542.00;;;1.50
75822;BMP180;64454;51.984;9.838;2022-12-18T11:40:22;101563.00;;;0.70
75822;BMP180;64454;51.984;9.838;2022-12-18T11:42:58;101539.00;;;0.70
75822;BMP180;64454;51.984;9.838;2022-12-18T11:45:33;101530.00;;;0.80
75822;BMP180;64454;51.984;9.838;2022-12-18T11:48:11;101517.00;;;0.90
75822;BMP180;64454;51.984;9.838;2022-12-18T11:50:47;101510.00;;;0.90
75822;BMP180;64454;51.984;9.838;2022-12-18T11:53:16;101510.00;;;0.80
75822;BMP180;64454;51.984;9.838;2022-12-18T11:55:56;101499.00;;;0.60
75822;BMP180;64454;51.984;9.838;2022-12-18T11:58:42;101501.00;;;0.80
75822;BMP180;64454;51.984;9.838;2022-12-18T12:01:27;101486.00;;;1.50
75822;BMP180;64454;51.984;9.838;2022-12-18T12:04:26;101487.00;;;1.70
75822;BMP180;64454;51.984;9.838;2022-12-18T12:07:07;101479.00;;;1.80
75822;BMP180;64454;51.984;9.838;2022-12-18T12:09:52;101479.00;;;1.30
75822;BMP180;64454;51.984;9.838;2022-12-18T12:12:36;101477.00;;;1.10
75822;BMP180;64454;51.984;9.838;2022-12-18T12:15:27;101488.00;;;0.90
75822;BMP180;64454;51.984;9.838;2022-12-18T12:18:08;101481.00;;;0.70
75822;BMP180;64454;51.984;9.838;2022-12-18T12:20:51;101473.00;;;0.60
75822;BMP180;64454;51.984;9.838;2022-12-18T12:23:31;101458.00;;;0.50
75822;BMP180;64454;51.984;9.838;2022-12-18T12:26:06;101458.00;;;0.70
75822;BMP180;64454;51.984;9.838;2022-12-18T12:29:00;101454.00;;;0.40
75822;BMP180;64454;51.984;9.838;2022-12-18T12:31:51;101455.00;;;0.10
75822;BMP180;64454;51.984;9.838;2022-12-18T12:34:26;101457.00;;;0.30
75822;BMP180;64454;51.984;9.838;2022-12-18T12:37:08;101447.00;;;0.50
75822;BMP180;64454;51.984;9.838;2022-12-18T12:39:42;101445.00;;;0.40
75822;BMP180;64454;51.984;9.838;2022-12-18T12:42:20;101450.00;;;0.30
75822;BMP180;64454;51.984;9.838;2022-12-18T12:45:16;101431.00;;;0.20
75822;BMP180;64454;51.984;9.838;2022-12-18T12:47:48;101423.00;;;0.40
75822;BMP180;64454;51.984;9.838;2022-12-18T12:50:20;101421.00;;;0.20
75822;BMP180;64454;51.984;9.838;2022-12-18T12:52:51;101401.00;;;0.10
75822;BMP180;64454;51.984;9.838;2022-12-18T12:55:22;101415.00;;;-0.20
75822;BMP180;64454;51.984;9.838;2022-12-18T12:58:00;101424.00;;;-0.30
75822;BMP180;64454;51.984;9.838;2022-12-18T13:00:39;101424.00;;;0.00
75822;BMP180;64454;51.984;9.838;2022-12-18T13:03:19;101441.00;;;-0.20
75822;BMP180;64454;51.984;9.838;2022-12-18T13:05:58;101437.00;;;-0.60
75822;BMP180;64454;51.984;9.838;2022-12-18T13:08:30;101428.00;;;-0.40
75822;BMP180;64454;51.984;9.838;2022-12-18T13:10:59;101440.00;;;-0.40
75822;BMP180;64454;51.984;9.838;2022-12-18T13:13:51;101433.00;;;-0.20
75822;BMP180;64454;51.984;9.838;2022-12-18T13:16:20;101419.00;;;-0.30
75822;BMP180;64454;51.984;9.838;2022-12-18T13:18:52;101423.00;;;-0.40
75822;BMP180;64454;51.984;9.838;2022-12-18T13:21:27;101417.00;;;-0.40
75822;BMP180;64454;51.984;9.838;2022-12-18T13:23:55;101417.00;;;-0.40
75822;BMP180;64454;51.984;9.838;2022-12-18T13:26:33;101419.00;;;-0.60
75822;BMP180;64454;51.984;9.838;2022-12-18T13:29:02;101421.00;;;-0.30
75822;BMP180;64454;51.984;9.838;2022-12-18T13:32:00;101420.00;;;-0.40
75822;BMP180;64454;51.984;9.838;2022-12-18T13:34:29;101417.00;;;-0.20
75822;BMP180;64454;51.984;9.838;2022-12-18T13:37:42;101426.00;;;-0.20
75822;BMP180;64454;51.984;9.838;2022-12-18T13:40:56;101424.00;;;-0.20
75822;BMP180;64454;51.984;9.838;2022-12-18T13:43:39;101416.00;;;0.10
75822;BMP180;64454;51.984;9.838;2022-12-18T13:46:27;101423.00;;;-0.10
75822;BMP180;64454;51.984;9.838;2022-12-18T13:49:00;101432.00;;;0.00
75822;BMP180;64454;51.984;9.838;2022-12-18T13:51:30;101442.00;;;0.10
75822;BMP180;64454;51.984;9.838;2022-12-18T13:54:02;101425.00;;;-0.10
75822;BMP180;64454;51.984;9.838;2022-12-18T13:56:33;101432.00;;;-0.10
75822;BMP180;64454;51.984;9.838;2022-12-18T13:59:12;101416.00;;;-0.10
75822;BMP180;64454;51.984;9.838;2022-12-18T14:01:44;101413.00;;;-0.20
75822;BMP180;64454;51.984;9.838;2022-12-18T14:04:21;101415.00;;;-0.50
75822;BMP180;64454;51.984;9.838;2022-12-18T14:06:52;101425.00;;;-0.30
75822;BMP180;64454;51.984;9.838;2022-12-18T14:09:27;101415.00;;;-0.30
75822;BMP180;64454;51.984;9.838;2022-12-18T14:11:57;101406.00;;;-0.50
75822;BMP180;64454;51.984;9.838;2022-12-18T14:14:42;101401.00;;;-0.30
75822;BMP180;64454;51.984;9.838;2022-12-18T14:17:11;101392.00;;;-0.10
75822;BMP180;64454;51.984;9.838;2022-12-18T14:19:43;101385.00;;;-0.20
75822;BMP180;64454;51.984;9.838;2022-12-18T14:22:17;101381.00;;;-0.20
75822;BMP180;64454;51.984;9.838;2022-12-18T14:24:46;101380.00;;;-0.40
75822;BMP180;64454;51.984;9.838;2022-12-18T14:27:23;101367.00;;;-0.30
75822;BMP180;64454;51.984;9.838;2022-12-18T14:29:50;101361.00;;;-0.10